Time;durP1;ratioP1;P1;durP2;ratioP2;P2;SDS_P1;SDS_P2;PMS_P1;PMS_P2;Temp;Humidity;BMP_temperature;BMP_pressure;BME280_temperature;BME280_humidity;BME280_pressure;Samples;Min_cycle;Max_cycle;Signal;HPM_P1;HPM_P2
2021/03/21 00:01:00;;;;;;;5.73;3.77;;;2.80;92.90;;;;;;5008182;28;20651;-63
2021/03/21 00:03:27;;;;;;;4.80;3.00;;;1.90;92.60;;;;;;5008904;28;20265;-63
2021/03/21 00:05:54;;;;;;;5.17;3.80;;;2.00;92.60;;;;;;5009210;28;20505;-62
2021/03/21 00:08:23;;;;;;;3.80;3.40;;;2.80;92.90;;;;;;5009568;28;20609;-61
2021/03/21 00:10:53;;;;;;;5.50;3.83;;;1.90;92.70;;;;;;5008752;28;20253;-63
2021/03/21 00:13:20;;;;;;;3.17;2.60;;;2.00;92.80;;;;;;5009122;28;20958;-63
2021/03/21 00:15:48;;;;;;;6.77;3.90;;;3.20;93.20;;;;;;5013035;28;20285;-63
2021/03/21 00:18:18;;;;;;;4.20;3.13;;;2.00;93.00;;;;;;5012944;28;20407;-63
2021/03/21 00:20:45;;;;;;;5.20;3.00;;;2.10;93.00;;;;;;5008428;28;20332;-62
2021/03/21 00:23:12;;;;;;;3.57;2.90;;;2.10;93.00;;;;;;5007959;28;20564;-63
2021/03/21 00:25:39;;;;;;;5.73;3.40;;;3.00;93.30;;;;;;4990834;28;20456;-63
2021/03/21 00:28:10;;;;;;;4.70;3.23;;;2.00;93.20;;;;;;5008673;28;20261;-63
2021/03/21 00:30:39;;;;;;;6.10;3.17;;;2.20;93.20;;;;;;5008799;28;20214;-62
2021/03/21 00:33:08;;;;;;;4.27;3.63;;;2.90;93.20;;;;;;5008844;28;21002;-63
2021/03/21 00:35:34;;;;;;;5.23;2.97;;;2.20;93.00;;;;;;5008554;28;20378;-63
2021/03/21 00:38:04;;;;;;;5.90;3.20;;;2.60;93.30;;;;;;5009230;28;20720;-63
2021/03/21 00:40:31;;;;;;;6.93;2.97;;;2.10;93.10;;;;;;5008531;28;20312;-63
2021/03/21 00:42:58;;;;;;;3.60;3.30;;;2.80;93.40;;;;;;5009021;28;20214;-63
2021/03/21 00:45:27;;;;;;;4.23;3.40;;;2.10;93.40;;;;;;5008781;28;20316;-62
2021/03/21 00:47:55;;;;;;;4.33;2.90;;;2.60;93.50;;;;;;5008947;28;20617;-63
2021/03/21 00:50:26;;;;;;;3.27;2.73;;;2.20;93.30;;;;;;5008274;28;20984;-63
2021/03/21 00:52:52;;;;;;;3.57;2.30;;;2.20;93.50;;;;;;4990363;28;20421;-63
2021/03/21 00:55:19;;;;;;;4.57;3.07;;;2.20;93.60;;;;;;5008794;28;20210;-63
2021/03/21 00:57:46;;;;;;;3.80;3.23;;;2.20;93.70;;;;;;5008624;28;20648;-62
2021/03/21 01:00:21;;;;;;;4.33;3.07;;;2.20;93.90;;;;;;5008636;28;20534;-63
2021/03/21 01:02:48;;;;;;;4.50;2.90;;;2.30;93.90;;;;;;5007709;28;20712;-63
2021/03/21 01:05:19;;;;;;;5.13;3.40;;;2.40;94.30;;;;;;5008133;28;20214;-63
2021/03/21 01:07:46;;;;;;;4.30;2.50;;;2.30;94.50;;;;;;4990103;28;20214;-63
2021/03/21 01:10:13;;;;;;;3.37;2.77;;;2.40;94.80;;;;;;5008944;28;20215;-63
2021/03/21 01:12:39;;;;;;;3.23;2.80;;;2.40;95.00;;;;;;5008315;28;20226;-63
2021/03/21 01:15:08;;;;;;;6.47;2.80;;;2.40;95.10;;;;;;5008432;28;20210;-63
2021/03/21 01:17:34;;;;;;;4.80;2.80;;;2.20;95.00;;;;;;5008211;28;20230;-63
2021/03/21 01:20:00;;;;;;;4.23;2.83;;;2.40;95.50;;;;;;5008270;28;20214;-62
2021/03/21 01:22:27;;;;;;;4.57;3.17;;;2.40;95.70;;;;;;5007672;28;20627;-63
2021/03/21 01:24:53;;;;;;;4.00;2.83;;;2.20;95.80;;;;;;5008130;28;20410;-63
2021/03/21 01:27:19;;;;;;;5.27;3.17;;;2.60;96.20;;;;;;5008219;28;20569;-64
2021/03/21 01:29:46;;;;;;;3.47;2.93;;;2.40;96.30;;;;;;5008163;28;20210;-63
2021/03/21 01:32:13;;;;;;;4.80;3.20;;;2.40;96.50;;;;;;5008160;28;20331;-63
2021/03/21 01:34:39;;;;;;;5.60;3.30;;;3.60;97.20;;;;;;5009673;28;20221;-63
2021/03/21 01:37:06;;;;;;;2.60;2.30;;;2.50;97.00;;;;;;5011350;28;20223;-63
2021/03/21 01:39:32;;;;;;;4.83;3.50;;;2.50;97.20;;;;;;5011544;28;20645;-62
2021/03/21 01:42:02;;;;;;;5.13;3.53;;;3.60;97.80;;;;;;5011258;28;20237;-63
2021/03/21 01:44:29;;;;;;;4.53;2.90;;;2.50;97.60;;;;;;5011399;28;20955;-62
2021/03/21 01:47:20;;;;;;;4.73;2.93;;;2.40;97.80;;;;;;5011743;28;20210;-62
2021/03/21 01:49:49;;;;;;;3.23;2.90;;;2.50;98.10;;;;;;5011361;28;20292;-63
2021/03/21 01:52:31;;;;;;;3.90;3.13;;;2.90;98.50;;;;;;5011350;28;20443;-63
2021/03/21 01:54:58;;;;;;;3.73;2.70;;;2.50;98.70;;;;;;5011548;28;20660;-62
2021/03/21 01:57:26;;;;;;;4.00;2.87;;;2.90;99.20;;;;;;5010952;28;20478;-63
2021/03/21 01:59:54;;;;;;;5.13;3.57;;;1.30;98.90;;;;;;5011531;28;20202;-62
2021/03/21 02:02:21;;;;;;;6.03;3.73;;;3.30;99.80;;;;;;4992113;28;20269;-62
2021/03/21 02:04:48;;;;;;;4.63;2.70;;;2.60;99.90;;;;;;5011499;28;20615;-62
2021/03/21 02:07:26;;;;;;;5.10;3.30;;;2.50;99.90;;;;;;5010870;28;20256;-62
2021/03/21 02:09:59;;;;;;;5.60;3.40;;;2.50;99.90;;;;;;5010771;28;20229;-62
2021/03/21 02:12:37;;;;;;;6.23;3.53;;;2.50;99.90;;;;;;5010999;28;20643;-63
2021/03/21 02:15:12;;;;;;;7.27;3.83;;;2.50;99.90;;;;;;5010827;28;20587;-62
2021/03/21 02:17:46;;;;;;;5.67;3.60;;;2.30;99.90;;;;;;5011492;28;20489;-63
2021/03/21 02:20:43;;;;;;;5.37;3.33;;;2.40;99.90;;;;;;5010685;28;20233;-63
2021/03/21 02:23:14;;;;;;;5.20;3.70;;;2.40;99.90;;;;;;5010316;28;20652;-62
2021/03/21 02:26:07;;;;;;;4.37;3.90;;;2.50;99.90;;;;;;5010360;28;20501;-63
2021/03/21 02:28:45;;;;;;;5.10;3.90;;;2.50;99.90;;;;;;5010665;28;20998;-63
2021/03/21 02:31:23;;;;;;;4.90;3.57;;;3.60;99.90;;;;;;4990683;28;20219;-62
2021/03/21 02:33:53;;;;;;;5.73;3.03;;;2.50;99.90;;;;;;4990618;28;20412;-61
2021/03/21 02:36:24;;;;;;;5.13;3.67;;;2.50;99.90;;;;;;5006699;28;20319;-63
2021/03/21 02:38:56;;;;;;;5.87;4.10;;;2.50;99.90;;;;;;5009782;28;20494;-62
2021/03/21 02:41:28;;;;;;;5.33;3.70;;;2.50;99.90;;;;;;5010433;28;20731;-62
2021/03/21 02:44:00;;;;;;;6.67;4.10;;;2.40;99.90;;;;;;5012185;28;20217;-63
2021/03/21 02:46:31;;;;;;;6.13;4.03;;;2.40;99.90;;;;;;5010631;28;20603;-63
2021/03/21 02:49:05;;;;;;;6.73;4.30;;;2.40;99.90;;;;;;5010398;28;20781;-61
2021/03/21 02:51:35;;;;;;;4.37;3.20;;;2.60;99.90;;;;;;4991324;28;20229;-61
2021/03/21 02:54:09;;;;;;;5.10;3.67;;;2.40;99.90;;;;;;5010448;28;20764;-62
2021/03/21 02:56:38;;;;;;;5.03;3.20;;;2.50;99.90;;;;;;5010363;28;20237;-61
2021/03/21 02:59:08;;;;;;;4.80;3.50;;;2.40;99.90;;;;;;5010348;28;20723;-61
2021/03/21 03:01:45;;;;;;;5.93;3.60;;;2.50;99.90;;;;;;5010140;28;20634;-62
2021/03/21 03:04:17;;;;;;;5.27;3.70;;;2.40;99.90;;;;;;5009898;28;20446;-62
2021/03/21 03:06:47;;;;;;;6.07;3.80;;;2.60;99.90;;;;;;5010251;28;20672;-62
2021/03/21 03:09:18;;;;;;;5.93;3.93;;;2.60;99.90;;;;;;5010509;28;20588;-62
2021/03/21 03:11:50;;;;;;;4.50;3.60;;;2.60;99.90;;;;;;5010347;28;20449;-62
2021/03/21 03:14:21;;;;;;;4.97;3.87;;;2.50;99.90;;;;;;5009562;28;20218;-61
2021/03/21 03:16:59;;;;;;;8.13;4.70;;;2.60;99.90;;;;;;5010791;28;20301;-62
2021/03/21 03:19:33;;;;;;;5.80;4.03;;;2.60;99.90;;;;;;5009475;28;20244;-62
2021/03/21 03:22:06;;;;;;;6.87;4.40;;;2.50;99.90;;;;;;5009072;28;20305;-62
2021/03/21 03:24:38;;;;;;;7.13;4.27;;;2.40;99.90;;;;;;5009220;28;20478;-62
2021/03/21 03:27:13;;;;;;;6.47;4.20;;;2.50;99.90;;;;;;5009289;28;20808;-61
2021/03/21 03:29:42;;;;;;;7.03;4.23;;;2.40;99.90;;;;;;5009451;28;20240;-60
2021/03/21 03:32:12;;;;;;;4.07;3.27;;;2.70;99.90;;;;;;5009286;28;20857;-60
2021/03/21 03:34:42;;;;;;;4.80;3.63;;;2.60;99.90;;;;;;5009896;28;20484;-62
2021/03/21 03:37:09;;;;;;;6.13;4.13;;;2.60;99.90;;;;;;5009927;28;20645;-62
2021/03/21 03:39:37;;;;;;;5.53;4.07;;;2.80;99.90;;;;;;5009522;28;20233;-60
2021/03/21 03:42:10;;;;;;;7.13;4.00;;;2.70;99.90;;;;;;4989974;28;20525;-61
2021/03/21 03:44:45;;;;;;;6.73;4.10;;;2.70;99.90;;;;;;4989728;28;21053;-61
2021/03/21 03:47:16;;;;;;;4.67;3.77;;;3.10;99.90;;;;;;5002409;28;20329;-64
2021/03/21 03:49:53;;;;;;;4.90;3.77;;;2.70;99.90;;;;;;5010098;28;20874;-61
2021/03/21 03:52:34;;;;;;;5.80;4.00;;;3.30;99.90;;;;;;5009439;28;20226;-63
2021/03/21 03:55:05;;;;;;;5.70;4.07;;;2.90;99.90;;;;;;5015215;28;20545;-63
2021/03/21 03:57:36;;;;;;;7.00;4.33;;;3.10;99.90;;;;;;5009597;28;20484;-63
2021/03/21 04:00:14;;;;;;;5.10;4.07;;;2.90;99.90;;;;;;5008947;28;20526;-63
2021/03/21 04:02:51;;;;;;;6.10;4.40;;;2.80;99.90;;;;;;5008467;28;20596;-63
2021/03/21 04:05:22;;;;;;;5.17;3.97;;;2.90;99.90;;;;;;5009376;28;20709;-63
2021/03/21 04:07:56;;;;;;;4.83;3.03;;;2.90;99.90;;;;;;5009218;28;20716;-63
2021/03/21 04:10:28;;;;;;;4.87;4.13;;;2.90;99.90;;;;;;5008698;28;20217;-63
2021/03/21 04:13:05;;;;;;;6.00;3.90;;;3.00;99.90;;;;;;5009167;28;20964;-63
2021/03/21 04:15:38;;;;;;;5.43;3.97;;;3.30;99.90;;;;;;5008860;28;20237;-63
2021/03/21 04:18:10;;;;;;;6.53;3.77;;;2.90;99.90;;;;;;5009092;28;20661;-63
2021/03/21 04:20:38;;;;;;;4.57;3.70;;;4.00;99.90;;;;;;4990460;28;20211;-63
2021/03/21 04:23:11;;;;;;;6.50;4.87;;;3.30;99.90;;;;;;5009062;28;20670;-63
2021/03/21 04:25:44;;;;;;;6.70;4.50;;;3.00;99.90;;;;;;5008769;28;20222;-62
2021/03/21 04:28:15;;;;;;;6.17;4.50;;;3.10;99.90;;;;;;5008987;28;21046;-62
2021/03/21 04:30:46;;;;;;;7.63;5.00;;;3.20;99.90;;;;;;5008911;28;20888;-63
2021/03/21 04:33:18;;;;;;;6.03;4.77;;;3.10;99.90;;;;;;5009249;28;21022;-63
2021/03/21 04:35:48;;;;;;;7.37;4.93;;;3.10;99.90;;;;;;5008822;28;20528;-63
2021/03/21 04:38:18;;;;;;;5.77;4.53;;;3.20;99.90;;;;;;4990558;28;20207;-63
2021/03/21 04:40:46;;;;;;;7.17;4.73;;;3.10;99.90;;;;;;5008635;28;20230;-61
2021/03/21 04:43:19;;;;;;;7.93;4.77;;;3.10;99.90;;;;;;5008170;28;20682;-63
2021/03/21 04:45:50;;;;;;;9.43;5.53;;;3.30;99.90;;;;;;5008343;28;20211;-62
2021/03/21 04:48:19;;;;;;;7.87;4.87;;;3.30;99.90;;;;;;5008412;28;20674;-64
2021/03/21 04:50:47;;;;;;;6.13;5.20;;;3.20;99.90;;;;;;5008047;28;20494;-63
2021/03/21 04:53:20;;;;;;;5.20;3.87;;;3.20;99.90;;;;;;5008596;28;20444;-63
2021/03/21 04:55:53;;;;;;;8.87;5.70;;;3.10;99.90;;;;;;5008381;28;20383;-63
2021/03/21 04:58:31;;;;;;;8.57;5.07;;;3.30;99.90;;;;;;5008682;28;20222;-63
2021/03/21 05:01:05;;;;;;;5.90;4.17;;;3.10;99.90;;;;;;5007849;28;20260;-63
2021/03/21 05:03:38;;;;;;;6.67;5.30;;;3.20;99.90;;;;;;5008341;28;20245;-63
2021/03/21 05:06:07;;;;;;;8.37;5.93;;;3.00;99.90;;;;;;5008368;28;20226;-63
2021/03/21 05:08:38;;;;;;;8.60;5.43;;;3.10;99.90;;;;;;5008256;28;20511;-63
2021/03/21 05:11:07;;;;;;;7.77;6.10;;;3.00;99.90;;;;;;5008011;28;20246;-63
2021/03/21 05:13:40;;;;;;;7.70;5.67;;;3.10;99.90;;;;;;5008484;28;20319;-64
2021/03/21 05:16:12;;;;;;;8.20;6.50;;;3.10;99.90;;;;;;5008036;28;20769;-63
2021/03/21 05:18:44;;;;;;;9.43;6.00;;;3.60;99.90;;;;;;5008555;28;20760;-62
2021/03/21 05:21:17;;;;;;;8.80;6.30;;;3.10;99.90;;;;;;5008070;28;20782;-62
2021/03/21 05:23:58;;;;;;;9.70;6.83;;;3.90;99.90;;;;;;5008242;28;20560;-63
2021/03/21 05:26:30;;;;;;;10.27;6.53;;;3.00;99.90;;;;;;5007889;28;20429;-63
2021/03/21 05:29:12;;;;;;;10.43;7.10;;;3.00;99.90;;;;;;4989353;28;20847;-62
2021/03/21 05:31:39;;;;;;;10.43;7.50;;;3.10;99.90;;;;;;5007510;28;20592;-63
2021/03/21 05:34:06;;;;;;;9.43;7.23;;;2.90;99.90;;;;;;5007293;28;20215;-62
2021/03/21 05:36:44;;;;;;;8.80;7.20;;;2.90;99.90;;;;;;5007191;28;20226;-63
2021/03/21 05:39:19;;;;;;;11.07;7.30;;;3.00;99.90;;;;;;5007881;28;20220;-63
2021/03/21 05:42:20;;;;;;;10.23;7.67;;;2.90;99.90;;;;;;5007883;28;20571;-63
2021/03/21 05:45:06;;;;;;;12.07;7.80;;;2.80;99.90;;;;;;5007906;28;21289;-63
2021/03/21 05:47:53;;;;;;;10.57;8.23;;;2.90;99.90;;;;;;5007842;28;20595;-63
2021/03/21 05:51:03;;;;;;;12.07;8.60;;;2.90;99.90;;;;;;5007093;28;20253;-63
2021/03/21 05:54:15;;;;;;;9.90;7.53;;;2.90;99.90;;;;;;5007678;28;20569;-63
2021/03/21 05:57:05;;;;;;;11.43;8.40;;;2.80;99.90;;;;;;4944492;28;20556;-63
2021/03/21 05:59:52;;;;;;;11.30;8.10;;;2.90;99.90;;;;;;4974394;28;20271;-62
2021/03/21 06:02:54;;;;;;;14.83;10.37;;;2.90;99.90;;;;;;5007239;28;20667;-63
2021/03/21 06:05:57;;;;;;;12.67;9.30;;;2.70;99.90;;;;;;5007059;28;20687;-62
2021/03/21 06:08:44;;;;;;;16.60;10.33;;;2.70;99.90;;;;;;5004843;28;20775;-61
2021/03/21 06:11:35;;;;;;;16.37;10.23;;;3.00;99.90;;;;;;5007320;28;20659;-60
2021/03/21 06:14:36;;;;;;;21.10;12.23;;;2.70;99.90;;;;;;5007116;28;20270;-60
2021/03/21 06:17:45;;;;;;;15.50;10.60;;;2.70;99.90;;;;;;4985324;28;20222;-60
2021/03/21 06:20:51;;;;;;;16.77;11.40;;;3.00;99.90;;;;;;5001069;28;21005;-61
2021/03/21 06:23:51;;;;;;;17.47;12.20;;;2.60;99.90;;;;;;4957096;28;20529;-61
2021/03/21 06:26:31;;;;;;;16.80;10.80;;;2.60;99.90;;;;;;5007126;28;21057;-60
2021/03/21 06:29:39;;;;;;;86.50;18.57;;;2.80;99.90;;;;;;5007885;28;20289;-59
2021/03/21 06:32:55;;;;;;;187.60;24.97;;;2.60;99.90;;;;;;5007993;28;20695;-60
2021/03/21 06:36:01;;;;;;;15.20;11.07;;;2.60;99.90;;;;;;5006665;28;20565;-61
2021/03/21 06:38:55;;;;;;;19.60;12.80;;;2.60;99.90;;;;;;5007375;28;20222;-60
2021/03/21 06:41:56;;;;;;;20.03;11.87;;;2.70;99.90;;;;;;5006859;28;20993;-60
2021/03/21 06:44:47;;;;;;;18.90;12.87;;;2.70;99.90;;;;;;5006306;28;20996;-60
2021/03/21 06:47:35;;;;;;;139.23;24.30;;;2.70;99.90;;;;;;5007934;28;21056;-62
2021/03/21 06:50:40;;;;;;;17.37;11.97;;;2.70;99.90;;;;;;5007842;28;20225;-61
2021/03/21 06:53:16;;;;;;;19.47;14.27;;;2.80;99.90;;;;;;5007039;28;20230;-61
2021/03/21 06:55:46;;;;;;;21.97;14.40;;;2.70;99.90;;;;;;4989040;28;20524;-62
2021/03/21 06:59:01;;;;;;;21.67;14.07;;;2.70;99.90;;;;;;5006742;28;20462;-61
2021/03/21 07:01:29;;;;;;;17.50;12.47;;;2.60;99.90;;;;;;5006842;28;20466;-61
2021/03/21 07:04:31;;;;;;;29.70;16.00;;;2.70;99.90;;;;;;5007039;28;20218;-61
2021/03/21 07:07:27;;;;;;;28.97;14.60;;;2.70;99.90;;;;;;5003413;28;20234;-62
2021/03/21 07:10:50;;;;;;;16.43;12.63;;;2.60;99.90;;;;;;4988365;28;20587;-62
2021/03/21 07:13:46;;;;;;;22.63;14.00;;;2.80;99.90;;;;;;5006806;28;20695;-62
2021/03/21 07:17:00;;;;;;;18.30;13.00;;;2.80;99.90;;;;;;4978674;28;20341;-60
2021/03/21 07:20:05;;;;;;;21.50;14.80;;;2.90;99.90;;;;;;4987665;28;20226;-61
2021/03/21 07:23:00;;;;;;;44.77;17.33;;;2.90;99.90;;;;;;4981844;28;21042;-62
2021/03/21 07:25:56;;;;;;;21.37;15.57;;;3.00;99.90;;;;;;5006470;28;20271;-61
2021/03/21 07:28:59;;;;;;;20.90;15.80;;;2.90;99.90;;;;;;5007041;28;20600;-61
2021/03/21 07:31:38;;;;;;;25.07;18.13;;;2.90;99.90;;;;;;5007086;28;20394;-62
2021/03/21 07:34:22;;;;;;;21.53;15.67;;;3.00;99.90;;;;;;5010388;28;20218;-62
2021/03/21 07:37:01;;;;;;;31.53;14.93;;;3.10;99.90;;;;;;5008048;28;20249;-62
2021/03/21 07:39:43;;;;;;;33.40;19.63;;;3.10;99.90;;;;;;5006019;28;20763;-61
2021/03/21 07:42:29;;;;;;;24.23;17.73;;;3.20;99.90;;;;;;5006413;28;20671;-62
2021/03/21 07:45:19;;;;;;;22.87;13.77;;;3.20;99.90;;;;;;5005822;28;20615;-62
2021/03/21 07:48:11;;;;;;;22.43;15.40;;;3.20;99.90;;;;;;5006096;28;20459;-61
2021/03/21 07:50:53;;;;;;;50.47;18.90;;;3.20;99.90;;;;;;5006078;28;20229;-61
2021/03/21 07:53:28;;;;;;;52.17;19.33;;;3.10;99.90;;;;;;5006285;28;20214;-61
2021/03/21 07:55:57;;;;;;;22.93;15.53;;;3.10;99.90;;;;;;5005713;28;20642;-61
2021/03/21 07:58:34;;;;;;;19.60;15.00;;;3.30;99.90;;;;;;5005836;28;20754;-60
2021/03/21 08:01:01;;;;;;;19.17;15.10;;;3.30;99.90;;;;;;5005624;28;21014;-60
2021/03/21 08:03:37;;;;;;;20.70;16.13;;;3.80;99.90;;;;;;5005976;28;20907;-61
2021/03/21 08:06:11;;;;;;;37.63;17.73;;;3.30;99.90;;;;;;5005872;28;20241;-61
2021/03/21 08:08:43;;;;;;;21.03;15.63;;;3.10;99.90;;;;;;5006210;28;20316;-61
2021/03/21 08:11:09;;;;;;;20.93;15.57;;;3.20;99.90;;;;;;5006422;28;20314;-61
2021/03/21 08:13:41;;;;;;;17.30;13.87;;;3.10;99.90;;;;;;5006169;28;20464;-61
2021/03/21 08:16:12;;;;;;;17.43;12.57;;;4.20;99.90;;;;;;5005365;28;20226;-61
2021/03/21 08:18:39;;;;;;;17.13;13.33;;;3.20;99.90;;;;;;5005980;28;20250;-62
2021/03/21 08:21:12;;;;;;;27.53;12.03;;;3.10;99.90;;;;;;5005624;28;20624;-61
2021/03/21 08:23:41;;;;;;;20.53;13.10;;;3.20;99.90;;;;;;5005954;28;20226;-60
2021/03/21 08:26:10;;;;;;;18.90;14.47;;;3.20;99.90;;;;;;5006218;28;20226;-61
2021/03/21 08:28:58;;;;;;;17.30;13.60;;;3.40;99.90;;;;;;5005295;28;20218;-62
2021/03/21 08:31:30;;;;;;;18.10;14.73;;;3.50;99.90;;;;;;5005849;28;20568;-62
2021/03/21 08:34:38;;;;;;;20.40;14.87;;;4.00;99.90;;;;;;5004898;28;20240;-62
2021/03/21 08:37:34;;;;;;;172.50;28.03;;;3.20;99.90;;;;;;5004799;28;20227;-62
2021/03/21 08:40:16;;;;;;;35.87;15.30;;;3.30;99.90;;;;;;5005548;28;20249;-61
2021/03/21 08:42:45;;;;;;;19.27;14.47;;;3.30;99.90;;;;;;5005527;28;21116;-62
2021/03/21 08:45:36;;;;;;;17.80;14.70;;;3.40;99.90;;;;;;5005084;28;20500;-61
2021/03/21 08:48:30;;;;;;;19.23;15.63;;;3.40;99.90;;;;;;5005533;28;20245;-62
2021/03/21 08:50:59;;;;;;;138.83;25.07;;;3.50;99.90;;;;;;5004020;28;20226;-60
2021/03/21 08:53:34;;;;;;;59.13;16.03;;;3.40;99.90;;;;;;5004900;28;20392;-61
2021/03/21 08:56:14;;;;;;;20.40;15.47;;;3.50;99.90;;;;;;5004231;28;20712;-61
2021/03/21 08:58:41;;;;;;;16.80;12.93;;;3.50;99.90;;;;;;5004675;28;20250;-61
2021/03/21 09:01:14;;;;;;;18.37;14.07;;;3.60;99.90;;;;;;4997636;28;20341;-60
2021/03/21 09:03:42;;;;;;;17.30;13.50;;;3.60;99.90;;;;;;5005269;28;20550;-61
2021/03/21 09:06:26;;;;;;;219.13;29.53;;;3.60;99.90;;;;;;5004868;28;20226;-62
2021/03/21 09:08:52;;;;;;;21.33;15.07;;;3.50;99.90;;;;;;5005099;28;20214;-60
2021/03/21 09:11:33;;;;;;;17.07;12.87;;;3.80;99.90;;;;;;5004786;28;20604;-61
2021/03/21 09:14:03;;;;;;;16.57;11.77;;;4.80;99.90;;;;;;4986103;28;20218;-61
2021/03/21 09:16:30;;;;;;;17.73;14.23;;;3.70;99.90;;;;;;5004357;28;20268;-61
2021/03/21 09:19:17;;;;;;;20.00;15.20;;;3.60;99.90;;;;;;4986153;28;20486;-61
2021/03/21 09:21:46;;;;;;;93.23;21.97;;;3.70;99.90;;;;;;5004111;28;20226;-61
2021/03/21 09:24:21;;;;;;;73.13;17.47;;;3.60;99.90;;;;;;5001832;28;20269;-61
2021/03/21 09:26:47;;;;;;;19.00;15.50;;;3.70;99.90;;;;;;5002335;28;20300;-61
2021/03/21 09:29:28;;;;;;;18.17;14.87;;;3.90;99.90;;;;;;5004382;28;20951;-61
2021/03/21 09:31:59;;;;;;;18.53;13.50;;;3.90;99.90;;;;;;5004033;28;20525;-62
2021/03/21 09:34:52;;;;;;;16.90;14.13;;;3.80;99.90;;;;;;5004190;28;20230;-62
2021/03/21 09:37:22;;;;;;;15.97;13.80;;;3.90;99.90;;;;;;5003977;28;20441;-61
2021/03/21 09:39:57;;;;;;;19.43;15.63;;;4.00;99.90;;;;;;5004628;28;20451;-61
2021/03/21 09:42:24;;;;;;;17.93;13.00;;;4.50;99.90;;;;;;5004329;28;20237;-61
2021/03/21 09:44:51;;;;;;;18.83;13.67;;;4.10;99.90;;;;;;5004519;28;20715;-61
2021/03/21 09:47:30;;;;;;;19.77;14.73;;;4.10;99.90;;;;;;5002724;28;20231;-61
2021/03/21 09:50:11;;;;;;;17.50;13.33;;;5.40;99.90;;;;;;4998017;28;20261;-61
2021/03/21 09:52:42;;;;;;;15.43;13.30;;;4.40;99.90;;;;;;5003608;28;20226;-60
2021/03/21 09:55:24;;;;;;;17.10;13.83;;;4.50;99.90;;;;;;5004237;28;20709;-61
2021/03/21 09:58:24;;;;;;;19.63;14.43;;;5.60;99.90;;;;;;5006631;28;20240;-61
2021/03/21 10:00:56;;;;;;;15.43;12.00;;;4.50;99.90;;;;;;5007270;28;20732;-61
2021/03/21 10:03:27;;;;;;;16.00;12.47;;;4.70;99.90;;;;;;5007186;28;20324;-61
2021/03/21 10:06:03;;;;;;;13.07;11.13;;;4.80;99.90;;;;;;5007528;28;20861;-62
2021/03/21 10:08:45;;;;;;;16.93;12.60;;;4.80;99.90;;;;;;5007678;28;20217;-62
2021/03/21 10:11:20;;;;;;;13.83;11.23;;;4.90;99.90;;;;;;5007159;28;20663;-60
2021/03/21 10:13:47;;;;;;;11.90;10.17;;;5.10;99.90;;;;;;5007428;28;20345;-62
2021/03/21 10:16:35;;;;;;;13.97;10.20;;;5.20;99.90;;;;;;5007288;28;20230;-61
2021/03/21 10:19:05;;;;;;;11.10;9.77;;;5.20;99.90;;;;;;5006784;28;20624;-61
2021/03/21 10:21:39;;;;;;;14.47;10.00;;;5.50;99.90;;;;;;5006463;28;20482;-62
2021/03/21 10:24:32;;;;;;;10.87;9.07;;;5.40;99.90;;;;;;5007115;28;20566;-61
2021/03/21 10:27:39;;;;;;;10.57;8.30;;;5.50;99.90;;;;;;4999683;28;21100;-62
2021/03/21 10:30:11;;;;;;;8.13;6.50;;;5.70;99.90;;;;;;4999425;28;20886;-61
2021/03/21 10:32:40;;;;;;;8.57;7.23;;;6.70;99.90;;;;;;5007021;28;20222;-62
2021/03/21 10:35:34;;;;;;;9.73;6.10;;;6.40;99.90;;;;;;5006912;28;20486;-61
2021/03/21 10:38:03;;;;;;;6.77;5.90;;;6.10;99.90;;;;;;4989400;28;20256;-61
2021/03/21 10:40:45;;;;;;;6.83;5.83;;;6.00;99.90;;;;;;5007427;28;20704;-62
2021/03/21 10:43:27;;;;;;;5.97;5.30;;;6.00;99.90;;;;;;5007556;28;20502;-62
2021/03/21 10:45:54;;;;;;;6.63;5.30;;;7.00;99.90;;;;;;5006748;28;20230;-61
2021/03/21 10:48:56;;;;;;;7.33;6.57;;;6.20;99.90;;;;;;5007188;28;20912;-60
2021/03/21 10:51:23;;;;;;;3.30;2.67;;;6.30;99.90;;;;;;4999997;28;21000;-61
2021/03/21 10:54:25;;;;;;;4.50;2.97;;;6.10;99.90;;;;;;5006846;28;20525;-62
2021/03/21 10:57:34;;;;;;;2.60;2.27;;;6.90;99.90;;;;;;4944463;28;20291;-62
2021/03/21 11:00:13;;;;;;;2.10;1.90;;;6.10;99.90;;;;;;4941719;28;20397;-61
2021/03/21 11:02:42;;;;;;;5.03;1.40;;;6.10;99.90;;;;;;4995296;28;20225;-62
2021/03/21 11:05:25;;;;;;;2.70;1.20;;;6.20;99.90;;;;;;5006852;28;20517;-62
2021/03/21 11:08:04;;;;;;;2.43;1.80;;;6.40;99.90;;;;;;5006195;28;20716;-62
2021/03/21 11:10:33;;;;;;;4.33;1.50;;;6.50;99.90;;;;;;5006640;28;20484;-63
2021/03/21 11:12:59;;;;;;;3.03;1.70;;;7.80;99.90;;;;;;5007444;28;20672;-63
2021/03/21 11:15:33;;;;;;;2.50;1.40;;;6.90;99.90;;;;;;5007328;28;20525;-63
2021/03/21 11:18:17;;;;;;;2.40;1.53;;;7.00;99.90;;;;;;5007360;28;20590;-64
2021/03/21 11:20:44;;;;;;;4.57;1.57;;;7.10;99.90;;;;;;5003531;28;20516;-64
2021/03/21 11:23:16;;;;;;;4.60;1.50;;;7.30;99.90;;;;;;5015319;28;20761;-62
2021/03/21 11:25:44;;;;;;;4.20;1.70;;;7.30;99.90;;;;;;5006192;28;20709;-65
2021/03/21 11:28:22;;;;;;;4.87;1.87;;;7.30;99.90;;;;;;5006200;28;20570;-63
2021/03/21 11:30:55;;;;;;;1.83;0.90;;;7.20;99.90;;;;;;4987680;28;20620;-64
2021/03/21 11:33:30;;;;;;;2.67;1.80;;;7.20;99.90;;;;;;5006079;28;20533;-64
2021/03/21 11:36:25;;;;;;;3.07;1.80;;;7.20;99.90;;;;;;5005720;28;20907;-63
2021/03/21 11:38:52;;;;;;;4.23;1.83;;;7.40;99.90;;;;;;4970129;28;20694;-63
2021/03/21 11:41:37;;;;;;;5.13;3.27;;;7.20;99.90;;;;;;5005790;28;20229;-63
2021/03/21 11:44:22;;;;;;;4.20;2.20;;;7.20;99.90;;;;;;5005038;28;20230;-63
2021/03/21 11:46:49;;;;;;;7.00;2.87;;;7.10;99.90;;;;;;5003224;28;20284;-63
2021/03/21 11:49:16;;;;;;;6.10;2.77;;;7.10;99.90;;;;;;5005864;28;20223;-64
2021/03/21 11:51:44;;;;;;;7.03;2.87;;;7.00;99.90;;;;;;5005489;28;20292;-63
2021/03/21 11:54:18;;;;;;;10.43;3.77;;;7.50;99.90;;;;;;5006288;28;20328;-63
2021/03/21 11:56:54;;;;;;;8.30;2.73;;;6.70;99.90;;;;;;5005362;28;21039;-63
2021/03/21 11:59:26;;;;;;;11.63;4.03;;;6.70;99.90;;;;;;5000422;28;20678;-63
2021/03/21 12:01:55;;;;;;;9.07;2.63;;;6.70;99.90;;;;;;5005312;28;20219;-62
2021/03/21 12:04:24;;;;;;;14.30;5.00;;;6.50;99.90;;;;;;5005633;28;20570;-63
2021/03/21 12:06:52;;;;;;;13.13;4.23;;;6.50;99.90;;;;;;5005248;28;20266;-63
2021/03/21 12:09:26;;;;;;;10.50;4.03;;;6.30;99.90;;;;;;5005602;28;21057;-63
2021/03/21 12:11:54;;;;;;;11.87;3.87;;;6.50;99.90;;;;;;5004911;28;20490;-62
2021/03/21 12:14:45;;;;;;;10.20;3.93;;;6.40;99.90;;;;;;4986692;28;20227;-62
2021/03/21 12:17:36;;;;;;;13.17;4.43;;;6.60;99.90;;;;;;5005012;28;20328;-63
2021/03/21 12:20:24;;;;;;;9.10;3.37;;;6.50;99.90;;;;;;5004669;28;20991;-62
2021/03/21 12:22:51;;;;;;;14.93;4.57;;;6.60;99.90;;;;;;5004987;28;20230;-62
2021/03/21 12:25:26;;;;;;;16.37;3.80;;;6.70;99.90;;;;;;5020183;28;20234;-62
2021/03/21 12:28:05;;;;;;;11.87;4.33;;;6.70;99.90;;;;;;5004888;28;20353;-63
2021/03/21 12:30:36;;;;;;;10.00;3.93;;;7.00;99.90;;;;;;5006224;28;20218;-62
2021/03/21 12:33:28;;;;;;;9.23;3.57;;;7.30;99.90;;;;;;5005414;28;20288;-62
2021/03/21 12:36:10;;;;;;;16.13;3.80;;;7.20;99.90;;;;;;4998919;28;20226;-61
2021/03/21 12:38:40;;;;;;;11.57;2.67;;;8.40;99.90;;;;;;5005070;28;20550;-63
2021/03/21 12:41:39;;;;;;;11.03;3.27;;;7.00;99.90;;;;;;5005400;28;20394;-63
2021/03/21 12:44:22;;;;;;;12.30;4.00;;;7.10;99.90;;;;;;5004349;28;20689;-63
2021/03/21 12:46:55;;;;;;;10.53;3.27;;;7.00;99.90;;;;;;5005212;28;20398;-63
2021/03/21 12:49:45;;;;;;;11.53;3.47;;;7.00;99.90;;;;;;5005583;28;20536;-63
2021/03/21 12:52:15;;;;;;;16.53;4.03;;;7.10;99.90;;;;;;5005549;28;20473;-64
2021/03/21 12:54:44;;;;;;;7.03;3.00;;;7.10;99.90;;;;;;5005268;28;20458;-62
2021/03/21 12:57:12;;;;;;;14.63;4.43;;;7.10;99.90;;;;;;5004890;28;20575;-61
2021/03/21 12:59:42;;;;;;;14.03;3.73;;;7.30;99.90;;;;;;4980176;28;20748;-62
2021/03/21 13:02:25;;;;;;;13.07;3.57;;;7.10;99.90;;;;;;5004963;28;20592;-62
2021/03/21 13:04:52;;;;;;;10.53;3.67;;;7.10;99.90;;;;;;5002652;28;21042;-62
2021/03/21 13:07:19;;;;;;;10.73;3.60;;;7.20;99.90;;;;;;5000401;28;20442;-62
2021/03/21 13:09:46;;;;;;;11.53;3.40;;;6.50;99.90;;;;;;5005128;28;20222;-63
2021/03/21 13:12:13;;;;;;;10.13;3.67;;;7.20;99.90;;;;;;5004829;28;20796;-63
2021/03/21 13:14:40;;;;;;;8.60;3.10;;;7.00;99.90;;;;;;5005025;28;20472;-63
2021/03/21 13:17:07;;;;;;;9.10;3.87;;;7.20;99.90;;;;;;5004613;28;20253;-63
2021/03/21 13:19:33;;;;;;;14.03;4.23;;;7.20;99.90;;;;;;5004732;28;21123;-63
2021/03/21 13:22:00;;;;;;;16.47;4.07;;;7.20;99.90;;;;;;5004877;28;20476;-63
2021/03/21 13:24:26;;;;;;;11.70;3.87;;;7.20;99.90;;;;;;5005193;28;20622;-63
2021/03/21 13:26:53;;;;;;;13.97;3.83;;;7.20;99.90;;;;;;5004210;28;20356;-63
2021/03/21 13:29:19;;;;;;;10.87;3.30;;;7.00;99.90;;;;;;5005068;28;20217;-61
2021/03/21 13:31:47;;;;;;;16.33;4.17;;;7.30;99.90;;;;;;5007610;28;20653;-63
2021/03/21 13:34:14;;;;;;;16.77;7.00;;;8.30;99.90;;;;;;5008847;28;20223;-64
2021/03/21 13:36:41;;;;;;;11.93;3.10;;;7.20;99.90;;;;;;5007728;28;20226;-63